Time;durP1;ratioP1;P1;durP2;ratioP2;P2;SDS_P1;SDS_P2;PMS_P1;PMS_P2;Temp;Humidity;BMP_temperature;BMP_pressure;BME280_temperature;BME280_humidity;BME280_pressure;Samples;Min_cycle;Max_cycle;Signal;HPM_P1;HPM_P2
2022/07/17 00:00:32;;;;;;;1.92;0.75;;;;;20.20;102616.00;;;;5035909;28;20195;-79
2022/07/17 00:02:59;;;;;;;1.52;0.80;;;;;20.10;102608.00;;;;5039652;28;20196;-79
2022/07/17 00:05:29;;;;;;;0.90;0.52;;;;;20.10;102614.00;;;;5044645;28;20199;-79
2022/07/17 00:07:56;;;;;;;0.60;0.35;;;;;20.10;102599.00;;;;5030681;28;20199;-79
2022/07/17 00:10:23;;;;;;;0.73;0.50;;;;;20.10;102602.00;;;;5032503;28;20231;-79
2022/07/17 00:12:51;;;;;;;1.58;0.77;;;;;20.00;102598.00;;;;5037310;28;20361;-79
2022/07/17 00:15:19;;;;;;;1.75;0.60;;;;;20.00;102603.00;;;;5034826;28;20204;-79
2022/07/17 00:17:46;;;;;;;3.08;0.70;;;;;20.00;102605.00;;;;5038655;28;20659;-79
2022/07/17 00:20:14;;;;;;;2.10;0.70;;;;;20.00;102598.00;;;;5041025;28;20206;-79
2022/07/17 00:22:43;;;;;;;1.98;0.70;;;;;19.90;102597.00;;;;5044133;28;20215;-79
2022/07/17 00:25:11;;;;;;;1.00;0.45;;;;;19.90;102595.00;;;;5038668;28;20204;-79
2022/07/17 00:27:38;;;;;;;0.90;0.50;;;;;19.90;102599.00;;;;5028543;28;20586;-79
2022/07/17 00:30:07;;;;;;;0.50;0.30;;;;;19.90;102613.00;;;;5029768;28;20203;-79
2022/07/17 00:32:35;;;;;;;2.00;0.70;;;;;19.80;102606.00;;;;5041419;28;20195;-79
2022/07/17 00:35:02;;;;;;;0.93;0.40;;;;;19.80;102617.00;;;;5041876;28;20210;-79
2022/07/17 00:37:29;;;;;;;0.40;0.35;;;;;19.80;102614.00;;;;5027773;28;20223;-79
2022/07/17 00:39:58;;;;;;;2.67;0.50;;;;;19.70;102610.00;;;;5028650;28;20201;-79
2022/07/17 00:42:26;;;;;;;1.65;0.43;;;;;19.70;102614.00;;;;5028133;28;20204;-79
2022/07/17 00:44:53;;;;;;;1.23;0.70;;;;;19.70;102605.00;;;;5028246;28;20220;-79
2022/07/17 00:47:21;;;;;;;1.42;0.50;;;;;19.70;102608.00;;;;5033596;28;20200;-79
2022/07/17 00:49:49;;;;;;;3.10;0.70;;;;;19.60;102598.00;;;;5029451;28;20675;-79
2022/07/17 00:52:18;;;;;;;0.77;0.40;;;;;19.60;102595.00;;;;5029431;28;20223;-79
2022/07/17 00:54:46;;;;;;;1.48;0.80;;;;;19.60;102598.00;;;;5036547;28;20207;-79
2022/07/17 00:57:16;;;;;;;2.20;0.63;;;;;19.60;102596.00;;;;5034317;28;20234;-79
2022/07/17 00:59:44;;;;;;;2.28;0.80;;;;;19.60;102593.00;;;;5028883;28;20202;-79
2022/07/17 01:02:13;;;;;;;1.75;0.70;;;;;19.60;102592.00;;;;5036744;28;20695;-79
2022/07/17 01:04:41;;;;;;;2.17;0.75;;;;;19.50;102595.00;;;;5034894;28;20258;-79
2022/07/17 01:07:10;;;;;;;1.08;0.60;;;;;19.50;102595.00;;;;5033805;28;20195;-79
2022/07/17 01:09:37;;;;;;;0.60;0.30;;;;;19.50;102602.00;;;;5045592;28;20214;-79
2022/07/17 01:12:06;;;;;;;1.73;0.80;;;;;19.50;102601.00;;;;5035772;28;20227;-79
2022/07/17 01:14:35;;;;;;;2.75;0.50;;;;;19.40;102603.00;;;;5039188;28;20680;-78
2022/07/17 01:17:03;;;;;;;1.40;0.60;;;;;19.40;102604.00;;;;5034905;28;20211;-79
2022/07/17 01:19:30;;;;;;;1.95;0.50;;;;;19.40;102598.00;;;;5039308;28;20701;-79
2022/07/17 01:21:59;;;;;;;1.88;0.75;;;;;19.40;102604.00;;;;5029843;28;20207;-78
2022/07/17 01:24:26;;;;;;;1.15;0.50;;;;;19.40;102602.00;;;;5031962;28;20200;-79
2022/07/17 01:26:53;;;;;;;0.60;0.47;;;;;19.40;102598.00;;;;5036784;28;20192;-79
2022/07/17 01:29:20;;;;;;;0.98;0.40;;;;;19.40;102599.00;;;;5036586;28;20192;-79
2022/07/17 01:31:48;;;;;;;1.25;0.60;;;;;19.30;102594.00;;;;5031994;28;20226;-79
2022/07/17 01:34:16;;;;;;;1.15;0.50;;;;;19.30;102595.00;;;;5032295;28;20211;-79
2022/07/17 01:36:43;;;;;;;2.92;0.88;;;;;19.30;102603.00;;;;5045091;28;20198;-78
2022/07/17 01:39:12;;;;;;;0.90;0.50;;;;;19.30;102602.00;;;;5032870;28;20200;-79
2022/07/17 01:41:39;;;;;;;0.75;0.50;;;;;19.30;102594.00;;;;5030845;28;20219;-79
2022/07/17 01:44:08;;;;;;;1.52;0.65;;;;;19.20;102594.00;;;;5041812;28;20220;-79
2022/07/17 01:46:36;;;;;;;0.98;0.40;;;;;19.20;102586.00;;;;5039993;28;20193;-79
2022/07/17 01:49:03;;;;;;;0.63;0.40;;;;;19.20;102580.00;;;;5035732;28;20203;-79
2022/07/17 01:51:30;;;;;;;1.67;0.60;;;;;19.20;102577.00;;;;5030681;28;20224;-79
2022/07/17 01:53:58;;;;;;;1.30;0.70;;;;;19.20;102575.00;;;;5032862;28;20705;-78
2022/07/17 01:56:26;;;;;;;1.35;0.70;;;;;19.10;102577.00;;;;5031824;28;20224;-79
2022/07/17 01:58:54;;;;;;;1.30;0.60;;;;;19.10;102571.00;;;;5043170;28;20204;-79
2022/07/17 02:01:21;;;;;;;1.05;0.55;;;;;19.10;102575.00;;;;5037659;28;20199;-79
2022/07/17 02:03:48;;;;;;;0.65;0.50;;;;;19.10;102579.00;;;;5031791;28;20566;-79
2022/07/17 02:06:15;;;;;;;6.90;0.77;;;;;19.00;102588.00;;;;5041272;28;20188;-79
2022/07/17 02:08:43;;;;;;;1.10;0.73;;;;;19.00;102594.00;;;;5042641;28;20203;-78
2022/07/17 02:11:10;;;;;;;2.33;0.77;;;;;19.00;102587.00;;;;5033911;28;20220;-78
2022/07/17 02:13:39;;;;;;;0.60;0.50;;;;;19.00;102592.00;;;;5044957;28;20207;-78
2022/07/17 02:16:06;;;;;;;3.00;0.50;;;;;19.00;102585.00;;;;5032487;28;20192;-79
2022/07/17 02:18:34;;;;;;;2.08;0.82;;;;;19.00;102578.00;;;;5031509;28;20211;-78
2022/07/17 02:21:01;;;;;;;1.27;0.55;;;;;18.90;102575.00;;;;5045416;28;20681;-78
2022/07/17 02:23:29;;;;;;;2.15;0.52;;;;;18.90;102583.00;;;;5033178;28;20187;-79
2022/07/17 02:25:56;;;;;;;2.58;0.70;;;;;18.90;102578.00;;;;5032635;28;20258;-78
2022/07/17 02:28:24;;;;;;;1.88;0.60;;;;;18.90;102578.00;;;;5030896;28;20223;-79
2022/07/17 02:30:52;;;;;;;1.27;0.70;;;;;18.90;102580.00;;;;5040192;28;20205;-79
2022/07/17 02:33:19;;;;;;;1.02;0.50;;;;;18.90;102586.00;;;;5039249;28;20200;-79
2022/07/17 02:35:47;;;;;;;2.30;0.52;;;;;18.80;102591.00;;;;5033273;28;20192;-78
2022/07/17 02:38:14;;;;;;;1.75;0.70;;;;;18.80;102597.00;;;;5041515;28;21050;-78
2022/07/17 02:40:42;;;;;;;1.35;0.70;;;;;18.80;102595.00;;;;5036541;28;20195;-78
2022/07/17 02:43:09;;;;;;;1.92;0.80;;;;;18.80;102598.00;;;;5032589;28;20533;-78
2022/07/17 02:45:37;;;;;;;1.40;0.68;;;;;18.80;102591.00;;;;5031292;28;20204;-78
2022/07/17 02:48:06;;;;;;;2.70;0.75;;;;;18.80;102601.00;;;;5040476;28;20207;-79
2022/07/17 02:50:33;;;;;;;2.25;0.77;;;;;18.80;102606.00;;;;5030451;28;20203;-78
2022/07/17 02:53:00;;;;;;;2.13;1.25;;;;;18.80;102607.00;;;;5032690;28;20239;-78
2022/07/17 02:55:28;;;;;;;6.30;0.95;;;;;18.70;102607.00;;;;5050607;28;20210;-78
2022/07/17 02:57:55;;;;;;;2.38;0.70;;;;;18.70;102602.00;;;;5042082;28;20689;-79
2022/07/17 03:00:23;;;;;;;1.45;0.73;;;;;18.70;102591.00;;;;5031210;28;20212;-78
2022/07/17 03:02:50;;;;;;;2.65;0.90;;;;;18.70;102592.00;;;;5044077;28;20192;-78
2022/07/17 03:05:18;;;;;;;1.58;0.80;;;;;18.70;102591.00;;;;5044557;28;20565;-79
2022/07/17 03:07:46;;;;;;;1.83;0.80;;;;;18.70;102589.00;;;;5030557;28;20200;-78
2022/07/17 03:10:14;;;;;;;3.25;0.73;;;;;18.70;102591.00;;;;5044222;28;20200;-78
2022/07/17 03:12:42;;;;;;;4.15;0.80;;;;;18.70;102579.00;;;;5033017;28;20220;-79
2022/07/17 03:15:10;;;;;;;1.10;0.40;;;;;18.60;102577.00;;;;5043994;28;20219;-78
2022/07/17 03:17:39;;;;;;;1.15;0.38;;;;;18.60;102576.00;;;;5033706;28;20200;-78
2022/07/17 03:20:08;;;;;;;3.00;0.63;;;;;18.60;102579.00;;;;5033674;28;20203;-78
2022/07/17 03:22:37;;;;;;;1.63;0.63;;;;;18.60;102583.00;;;;5048170;28;20206;-78
2022/07/17 03:25:05;;;;;;;0.80;0.40;;;;;18.60;102589.00;;;;5048351;28;20204;-78
2022/07/17 03:27:33;;;;;;;1.50;0.47;;;;;18.60;102587.00;;;;5037863;28;20196;-78
2022/07/17 03:30:00;;;;;;;1.23;0.70;;;;;18.60;102591.00;;;;5037786;28;20212;-78
2022/07/17 03:32:28;;;;;;;2.10;0.50;;;;;18.60;102595.00;;;;5030941;28;20224;-78
2022/07/17 03:34:58;;;;;;;0.85;0.40;;;;;18.50;102595.00;;;;5030191;28;20758;-78
2022/07/17 03:37:27;;;;;;;1.70;0.73;;;;;18.50;102603.00;;;;5032826;28;20200;-78
2022/07/17 03:39:56;;;;;;;2.72;0.52;;;;;18.50;102604.00;;;;5029903;28;20200;-78
2022/07/17 03:42:23;;;;;;;0.88;0.45;;;;;18.50;102607.00;;;;5030530;28;20199;-78
2022/07/17 03:44:50;;;;;;;0.93;0.40;;;;;18.50;102606.00;;;;5039293;28;20216;-78
2022/07/17 03:47:17;;;;;;;1.75;0.80;;;;;18.50;102602.00;;;;5029246;28;20193;-79
2022/07/17 03:49:45;;;;;;;2.30;0.85;;;;;18.50;102603.00;;;;5030547;28;20236;-78
2022/07/17 03:52:12;;;;;;;1.10;0.55;;;;;18.50;102593.00;;;;5029664;28;20227;-78
2022/07/17 03:54:40;;;;;;;3.50;0.85;;;;;18.50;102599.00;;;;5038158;28;20195;-78
2022/07/17 03:57:08;;;;;;;1.63;0.63;;;;;18.50;102596.00;;;;5040353;28;20243;-78
2022/07/17 03:59:36;;;;;;;0.70;0.47;;;;;18.50;102595.00;;;;5049280;28;20210;-78
2022/07/17 04:02:03;;;;;;;1.27;0.60;;;;;18.50;102608.00;;;;5032051;28;20698;-78
2022/07/17 04:04:30;;;;;;;1.65;0.80;;;;;18.50;102609.00;;;;5049333;28;20282;-79
2022/07/17 04:06:58;;;;;;;2.90;0.70;;;;;18.50;102612.00;;;;5049113;28;20207;-78
2022/07/17 04:09:25;;;;;;;2.67;0.60;;;;;18.50;102611.00;;;;5048235;28;20199;-78
2022/07/17 04:11:52;;;;;;;0.90;0.60;;;;;18.60;102614.00;;;;5038947;28;20220;-78
2022/07/17 04:14:21;;;;;;;2.95;0.77;;;;;18.60;102623.00;;;;5044730;28;20191;-78
2022/07/17 04:16:48;;;;;;;1.60;0.60;;;;;18.60;102617.00;;;;5034875;28;20191;-78
2022/07/17 04:19:15;;;;;;;1.00;0.68;;;;;18.60;102620.00;;;;5048499;28;20203;-79
2022/07/17 04:21:43;;;;;;;2.58;0.70;;;;;18.60;102623.00;;;;5046469;28;20200;-79
2022/07/17 04:24:10;;;;;;;2.60;0.60;;;;;18.70;102630.00;;;;5049373;28;20196;-78
2022/07/17 04:26:37;;;;;;;2.03;1.27;;;;;18.70;102626.00;;;;5039215;28;20204;-79
2022/07/17 04:29:04;;;;;;;1.67;0.60;;;;;18.70;102627.00;;;;5031512;28;20214;-79
2022/07/17 04:31:33;;;;;;;1.20;0.70;;;;;18.70;102626.00;;;;5033348;28;20242;-79
2022/07/17 04:34:00;;;;;;;3.03;0.93;;;;;18.70;102626.00;;;;5033983;28;20199;-78
2022/07/17 04:36:28;;;;;;;1.17;0.68;;;;;18.80;102621.00;;;;5028710;28;20204;-78
2022/07/17 04:38:55;;;;;;;1.52;0.68;;;;;18.80;102625.00;;;;5029015;28;20208;-78
2022/07/17 04:41:23;;;;;;;2.35;0.60;;;;;18.80;102624.00;;;;5028893;28;20191;-78
2022/07/17 04:43:50;;;;;;;2.38;0.82;;;;;18.80;102634.00;;;;5028562;28;20201;-78
2022/07/17 04:46:17;;;;;;;1.73;0.80;;;;;18.80;102621.00;;;;5031860;28;20219;-78
2022/07/17 04:48:46;;;;;;;1.38;0.75;;;;;18.80;102615.00;;;;5029586;28;20676;-78
2022/07/17 04:51:16;;;;;;;3.38;0.82;;;;;18.90;102628.00;;;;5045151;28;20200;-78
2022/07/17 04:53:43;;;;;;;1.52;0.60;;;;;18.90;102624.00;;;;5028953;28;20207;-78
2022/07/17 04:56:10;;;;;;;2.50;0.75;;;;;18.90;102619.00;;;;5028121;28;20239;-78
2022/07/17 04:58:38;;;;;;;1.50;0.70;;;;;19.00;102614.00;;;;5028892;28;20207;-79
2022/07/17 05:01:05;;;;;;;1.52;0.40;;;;;19.00;102606.00;;;;5029947;28;20196;-78
2022/07/17 05:03:32;;;;;;;1.10;0.43;;;;;19.00;102597.00;;;;5030027;28;20204;-78
2022/07/17 05:06:01;;;;;;;2.40;0.77;;;;;19.10;102598.00;;;;5029035;28;20200;-79
2022/07/17 05:08:28;;;;;;;2.40;0.85;;;;;19.10;102595.00;;;;5032935;28;20214;-79
2022/07/17 05:10:56;;;;;;;1.15;0.45;;;;;19.20;102596.00;;;;5047790;28;20184;-78
2022/07/17 05:13:23;;;;;;;1.45;0.63;;;;;19.30;102597.00;;;;5040680;28;20231;-78
2022/07/17 05:15:51;;;;;;;1.98;0.52;;;;;19.30;102604.00;;;;5028420;28;20682;-78
2022/07/17 05:18:18;;;;;;;1.65;0.90;;;;;19.40;102608.00;;;;5047852;28;20211;-78
2022/07/17 05:20:45;;;;;;;2.50;0.50;;;;;19.40;102608.00;;;;5029100;28;20236;-79
2022/07/17 05:23:14;;;;;;;2.45;0.43;;;;;19.50;102610.00;;;;5034796;28;20196;-79
2022/07/17 05:25:42;;;;;;;1.42;0.50;;;;;19.60;102612.00;;;;5041890;28;20574;-79
2022/07/17 05:28:09;;;;;;;1.75;0.70;;;;;19.70;102615.00;;;;5044884;28;20628;-78
2022/07/17 05:30:37;;;;;;;1.02;0.57;;;;;19.70;102614.00;;;;5033345;28;20661;-80
2022/07/17 05:33:04;;;;;;;1.75;0.57;;;;;19.80;102609.00;;;;5022296;28;20216;-79
2022/07/17 05:35:31;;;;;;;3.50;0.73;;;;;19.90;102607.00;;;;5027593;28;20196;-79
2022/07/17 05:37:59;;;;;;;3.88;0.60;;;;;20.00;102608.00;;;;5025396;28;20207;-79
2022/07/17 05:40:28;;;;;;;3.33;0.73;;;;;20.10;102604.00;;;;5026734;28;20203;-79
2022/07/17 05:42:55;;;;;;;2.97;0.80;;;;;20.20;102605.00;;;;5026715;28;20200;-79
2022/07/17 05:45:22;;;;;;;0.85;0.40;;;;;20.30;102605.00;;;;5030898;28;20992;-80
2022/07/17 05:47:50;;;;;;;1.08;0.50;;;;;20.40;102603.00;;;;5027456;28;20203;-80
2022/07/17 05:50:17;;;;;;;2.03;0.73;;;;;20.50;102604.00;;;;5030308;28;20193;-80
2022/07/17 05:52:44;;;;;;;1.42;0.60;;;;;20.60;102602.00;;;;5034705;28;20224;-80
2022/07/17 05:55:12;;;;;;;2.60;0.77;;;;;20.70;102605.00;;;;5046308;28;20211;-79
2022/07/17 05:57:40;;;;;;;2.38;0.60;;;;;20.80;102617.00;;;;5032732;28;20596;-79
2022/07/17 06:00:09;;;;;;;2.92;1.63;;;;;20.90;102624.00;;;;5028897;28;20204;-79
2022/07/17 06:02:36;;;;;;;3.35;1.13;;;;;21.00;102610.00;;;;5030848;28;20196;-79
2022/07/17 06:05:04;;;;;;;1.95;0.70;;;;;21.10;102599.00;;;;5033116;28;20201;-79
2022/07/17 06:07:31;;;;;;;1.55;0.70;;;;;21.20;102607.00;;;;5040574;28;20192;-78
2022/07/17 06:09:59;;;;;;;1.88;0.82;;;;;21.30;102619.00;;;;5023945;28;20228;-78
2022/07/17 06:12:26;;;;;;;2.00;0.65;;;;;21.40;102618.00;;;;5024881;28;20212;-78
2022/07/17 06:14:55;;;;;;;1.23;0.80;;;;;21.50;102621.00;;;;5028777;28;20197;-78
2022/07/17 06:17:22;;;;;;;2.45;0.73;;;;;21.50;102626.00;;;;5029013;28;20204;-77
2022/07/17 06:19:51;;;;;;;1.65;0.50;;;;;21.60;102644.00;;;;5036576;28;20203;-77
2022/07/17 06:22:19;;;;;;;1.15;0.65;;;;;21.70;102648.00;;;;5036830;28;20204;-77
2022/07/17 06:24:46;;;;;;;1.42;0.80;;;;;21.80;102648.00;;;;5028425;28;20200;-77
2022/07/17 06:27:14;;;;;;;1.05;0.63;;;;;21.90;102653.00;;;;5028570;28;20212;-79
2022/07/17 06:29:41;;;;;;;1.05;0.60;;;;;22.00;102652.00;;;;5038447;28;20208;-78
2022/07/17 06:32:10;;;;;;;0.73;0.50;;;;;22.10;102656.00;;;;5041205;28;20223;-78
2022/07/17 06:34:38;;;;;;;1.42;0.60;;;;;22.20;102660.00;;;;5034447;28;20678;-78
2022/07/17 06:37:05;;;;;;;0.95;0.30;;;;;22.30;102670.00;;;;5030044;28;21095;-79
2022/07/17 06:39:32;;;;;;;3.42;0.52;;;;;22.40;102669.00;;;;5031885;28;20564;-77
2022/07/17 06:42:00;;;;;;;1.63;0.50;;;;;22.50;102665.00;;;;5030078;28;20200;-77
2022/07/17 06:44:27;;;;;;;3.35;0.57;;;;;22.60;102672.00;;;;5035465;28;20220;-77
2022/07/17 06:46:55;;;;;;;0.77;0.45;;;;;22.70;102667.00;;;;5035473;28;20203;-77
2022/07/17 06:49:23;;;;;;;2.83;0.40;;;;;22.80;102664.00;;;;5034626;28;20197;-78
2022/07/17 06:51:51;;;;;;;2.95;0.50;;;;;22.90;102668.00;;;;5038722;28;20741;-77
2022/07/17 06:54:18;;;;;;;2.30;0.60;;;;;23.00;102675.00;;;;5042230;28;20228;-77
2022/07/17 06:56:46;;;;;;;2.15;0.60;;;;;23.10;102677.00;;;;5031399;28;20216;-78
2022/07/17 06:59:13;;;;;;;1.30;0.50;;;;;23.20;102678.00;;;;5030669;28;20204;-79
2022/07/17 07:01:40;;;;;;;2.53;0.68;;;;;23.30;102675.00;;;;5042948;28;20206;-78
2022/07/17 07:04:08;;;;;;;2.80;0.65;;;;;23.40;102678.00;;;;5048089;28;20196;-78
2022/07/17 07:06:36;;;;;;;2.55;0.50;;;;;23.50;102678.00;;;;5041906;28;20199;-79
2022/07/17 07:09:04;;;;;;;1.63;0.60;;;;;23.60;102678.00;;;;5029524;28;20196;-78
2022/07/17 07:11:32;;;;;;;2.95;0.60;;;;;23.60;102681.00;;;;5034426;28;20196;-77
2022/07/17 07:13:59;;;;;;;2.50;0.38;;;;;23.70;102684.00;;;;5030884;28;20228;-77
2022/07/17 07:16:26;;;;;;;1.83;0.30;;;;;23.80;102687.00;;;;5029516;28;20200;-77
2022/07/17 07:18:54;;;;;;;1.77;0.63;;;;;23.80;102689.00;;;;5041500;28;20254;-77
2022/07/17 07:21:22;;;;;;;0.90;0.40;;;;;23.90;102679.00;;;;5034844;28;20204;-77
2022/07/17 07:23:51;;;;;;;1.85;0.50;;;;;24.00;102680.00;;;;5038323;28;20195;-78
2022/07/17 07:26:18;;;;;;;2.42;0.73;;;;;24.20;102679.00;;;;5039480;28;20203;-77
2022/07/17 07:28:46;;;;;;;1.35;0.47;;;;;24.30;102683.00;;;;5042730;28;20204;-77
2022/07/17 07:31:13;;;;;;;2.25;0.50;;;;;24.40;102684.00;;;;5035961;28;20199;-77
2022/07/17 07:33:41;;;;;;;0.47;0.35;;;;;24.50;102676.00;;;;5041100;28;20242;-77
2022/07/17 07:36:08;;;;;;;4.47;0.82;;;;;24.60;102675.00;;;;5037963;28;20219;-77
2022/07/17 07:38:36;;;;;;;3.75;0.55;;;;;24.70;102677.00;;;;5039193;28;20381;-78
2022/07/17 07:41:04;;;;;;;1.83;0.43;;;;;24.80;102676.00;;;;5037663;28;20228;-78
2022/07/17 07:43:32;;;;;;;1.02;0.20;;;;;24.90;102681.00;;;;5033336;28;20211;-78
2022/07/17 07:45:59;;;;;;;1.67;0.43;;;;;25.00;102676.00;;;;5030205;28;20215;-78
2022/07/17 07:48:27;;;;;;;2.45;0.80;;;;;25.10;102693.00;;;;5030301;28;20674;-78
2022/07/17 07:50:55;;;;;;;0.70;0.20;;;;;25.20;102688.00;;;;5030706;28;20196;-78
2022/07/17 07:53:22;;;;;;;2.03;0.45;;;;;25.30;102695.00;;;;5034388;28;20224;-78
2022/07/17 07:55:49;;;;;;;2.20;0.60;;;;;25.40;102694.00;;;;5037738;28;20234;-78
2022/07/17 07:58:19;;;;;;;0.90;0.40;;;;;25.50;102693.00;;;;5036131;28;20202;-78
2022/07/17 08:00:46;;;;;;;1.25;0.38;;;;;25.70;102689.00;;;;5038484;28;20249;-77
2022/07/17 08:03:14;;;;;;;1.63;0.57;;;;;25.80;102690.00;;;;5047426;28;20580;-79
2022/07/17 08:05:42;;;;;;;0.75;0.32;;;;;25.90;102690.00;;;;5048552;28;20203;-78
2022/07/17 08:08:09;;;;;;;1.58;0.30;;;;;25.90;102692.00;;;;5048207;28;20195;-77
2022/07/17 08:10:37;;;;;;;1.48;0.43;;;;;26.00;102688.00;;;;5032881;28;20204;-78
2022/07/17 08:13:04;;;;;;;1.48;0.40;;;;;26.10;102693.00;;;;5029471;28;20224;-77
2022/07/17 08:15:33;;;;;;;1.48;0.55;;;;;26.20;102688.00;;;;5029575;28;20220;-79
2022/07/17 08:18:00;;;;;;;1.35;0.40;;;;;26.30;102693.00;;;;5030118;28;20204;-79
2022/07/17 08:20:28;;;;;;;1.20;0.40;;;;;26.40;102702.00;;;;5030007;28;20204;-79
2022/07/17 08:22:56;;;;;;;2.00;0.65;;;;;26.50;102692.00;;;;5032164;28;20211;-79
2022/07/17 08:25:23;;;;;;;1.67;0.40;;;;;26.60;102691.00;;;;5033210;28;20253;-79
2022/07/17 08:27:51;;;;;;;0.63;0.25;;;;;26.70;102698.00;;;;5030867;28;20203;-79
2022/07/17 08:30:18;;;;;;;2.33;0.22;;;;;26.80;102695.00;;;;5031057;28;20220;-79
2022/07/17 08:32:47;;;;;;;1.25;0.45;;;;;26.90;102690.00;;;;5035177;28;20219;-80
2022/07/17 08:35:15;;;;;;;1.38;0.45;;;;;27.00;102691.00;;;;5033718;28;20195;-79
2022/07/17 08:37:47;;;;;;;3.33;0.52;;;;;27.00;102698.00;;;;5030084;28;20556;-79
2022/07/17 08:40:19;;;;;;;1.35;0.50;;;;;27.00;102681.00;;;;5032593;28;20204;-78
2022/07/17 08:42:47;;;;;;;1.75;0.50;;;;;27.10;102682.00;;;;5033568;28;20192;-78
2022/07/17 08:45:14;;;;;;;1.33;0.40;;;;;27.10;102677.00;;;;5038782;28;20215;-78
2022/07/17 08:47:44;;;;;;;1.08;0.40;;;;;27.20;102681.00;;;;5035797;28;20568;-79
2022/07/17 08:50:14;;;;;;;1.25;0.50;;;;;27.30;102686.00;;;;5038256;28;20268;-79
2022/07/17 08:52:42;;;;;;;2.45;0.50;;;;;27.40;102679.00;;;;5040573;28;20195;-79
2022/07/17 08:55:12;;;;;;;1.35;0.50;;;;;27.50;102679.00;;;;5033944;28;20199;-79
2022/07/17 08:57:41;;;;;;;3.35;0.50;;;;;27.60;102678.00;;;;5036502;28;20986;-79
2022/07/17 09:00:11;;;;;;;0.88;0.47;;;;;27.70;102683.00;;;;5029789;28;20199;-79
2022/07/17 09:02:39;;;;;;;1.00;0.65;;;;;27.80;102682.00;;;;5038713;28;20724;-78
2022/07/17 09:05:08;;;;;;;2.70;0.50;;;;;28.00;102677.00;;;;5027643;28;20561;-78
2022/07/17 09:07:47;;;;;;;0.40;0.30;;;;;28.00;102672.00;;;;5032714;28;20659;-78
2022/07/17 09:10:14;;;;;;;1.35;0.55;;;;;28.20;102678.00;;;;5036811;28;20681;-78
2022/07/17 09:12:42;;;;;;;0.98;0.60;;;;;28.30;102668.00;;;;5034609;28;20192;-78
2022/07/17 09:15:17;;;;;;;1.55;0.73;;;;;28.30;102678.00;;;;5031195;28;20254;-76
2022/07/17 09:17:51;;;;;;;1.48;0.90;;;;;28.40;102682.00;;;;5028941;28;20196;-76
2022/07/17 09:20:20;;;;;;;1.83;0.50;;;;;28.60;102684.00;;;;5029469;28;20207;-79
2022/07/17 09:22:59;;;;;;;1.33;0.63;;;;;28.60;102682.00;;;;5031914;28;20235;-77
2022/07/17 09:25:35;;;;;;;1.88;0.63;;;;;28.70;102673.00;;;;5031458;28;20203;-77
2022/07/17 09:28:04;;;;;;;0.65;0.47;;;;;28.90;102673.00;;;;5031404;28;20199;-77
2022/07/17 09:30:32;;;;;;;1.20;0.65;;;;;29.00;102678.00;;;;5033581;28;20232;-77
2022/07/17 09:33:00;;;;;;;1.60;0.32;;;;;29.10;102686.00;;;;5033243;28;20196;-76
2022/07/17 09:35:27;;;;;;;1.45;0.98;;;;;29.10;102683.00;;;;5034413;28;20211;-76
2022/07/17 09:37:56;;;;;;;2.05;0.93;;;;;29.20;102684.00;;;;5033914;28;20717;-77
2022/07/17 09:43:09;;;;;;;1.25;0.68;;;;;29.40;102690.00;;;;5027746;28;20294;-78
2022/07/17 09:45:37;;;;;;;0.70;0.63;;;;;29.50;102692.00;;;;5028520;28;20220;-77
2022/07/17 09:48:05;;;;;;;1.50;0.75;;;;;29.50;102693.00;;;;5035553;28;20202;-77
2022/07/17 09:50:34;;;;;;;2.55;0.90;;;;;29.60;102697.00;;;;5047892;28;20203;-77
2022/07/17 09:53:04;;;;;;;0.50;0.43;;;;;29.70;102683.00;;;;5047844;28;20203;-77
2022/07/17 09:55:33;;;;;;;1.35;0.80;;;;;29.80;102686.00;;;;5028549;28;20195;-77
2022/07/17 09:58:03;;;;;;;0.93;0.70;;;;;29.80;102684.00;;;;5028508;28;20725;-78
2022/07/17 10:00:30;;;;;;;1.67;0.80;;;;;29.90;102686.00;;;;5029482;28;20226;-77
2022/07/17 10:02:58;;;;;;;1.73;0.55;;;;;30.00;102678.00;;;;5027970;28;20204;-78
2022/07/17 10:05:26;;;;;;;1.63;0.60;;;;;30.00;102679.00;;;;5045683;28;20199;-78
2022/07/17 10:07:53;;;;;;;1.20;0.80;;;;;30.00;102678.00;;;;5040048;28;20200;-78
2022/07/17 10:10:22;;;;;;;0.90;0.50;;;;;30.10;102675.00;;;;5031917;28;20196;-77
2022/07/17 10:12:51;;;;;;;0.85;0.40;;;;;30.10;102681.00;;;;5031847;28;20655;-77
2022/07/17 10:15:20;;;;;;;2.55;0.70;;;;;30.10;102677.00;;;;5040669;28;20227;-77
2022/07/17 10:17:47;;;;;;;0.70;0.45;;;;;30.20;102676.00;;;;5034434;28;20291;-77
2022/07/17 10:20:26;;;;;;;0.90;0.65;;;;;30.20;102687.00;;;;5031279;28;20195;-77
2022/07/17 10:22:53;;;;;;;2.42;0.77;;;;;30.30;102685.00;;;;5032055;28;20192;-77
2022/07/17 10:25:22;;;;;;;1.00;0.70;;;;;30.40;102689.00;;;;5035567;28;20204;-77
2022/07/17 10:27:50;;;;;;;1.65;0.50;;;;;30.50;102691.00;;;;5039683;28;20195;-78
2022/07/17 10:30:26;;;;;;;1.48;0.77;;;;;30.50;102683.00;;;;5042233;28;20196;-77
2022/07/17 10:32:56;;;;;;;2.10;0.60;;;;;30.60;102688.00;;;;5031872;28;20195;-77
2022/07/17 10:35:23;;;;;;;1.33;0.68;;;;;30.60;102683.00;;;;5031268;28;20224;-77
2022/07/17 10:37:51;;;;;;;0.85;0.55;;;;;30.70;102682.00;;;;5050960;28;20206;-77
2022/07/17 10:40:22;;;;;;;0.80;0.60;;;;;30.70;102687.00;;;;5041573;28;20204;-77
2022/07/17 10:42:57;;;;;;;2.85;0.70;;;;;30.70;102688.00;;;;5032796;28;20211;-77
2022/07/17 10:45:28;;;;;;;2.88;1.08;;;;;30.80;102688.00;;;;5051123;28;20760;-77
2022/07/17 10:47:58;;;;;;;1.73;1.10;;;;;30.80;102692.00;;;;5033927;28;20553;-77
2022/07/17 10:50:28;;;;;;;0.80;0.50;;;;;30.90;102690.00;;;;5030140;28;20200;-77
2022/07/17 10:53:07;;;;;;;0.93;0.70;;;;;30.90;102690.00;;;;5032203;28;20196;-77
2022/07/17 10:55:38;;;;;;;1.13;0.65;;;;;31.00;102693.00;;;;5031307;28;20228;-77
2022/07/17 10:58:16;;;;;;;1.63;0.90;;;;;30.90;102691.00;;;;5030959;28;20565;-77
2022/07/17 11:00:43;;;;;;;1.48;0.95;;;;;31.00;102694.00;;;;5048109;28;20195;-77
2022/07/17 11:03:12;;;;;;;1.15;0.70;;;;;31.10;102682.00;;;;5051280;28;20206;-77
2022/07/17 11:05:40;;;;;;;1.52;0.80;;;;;31.10;102688.00;;;;5051076;28;20196;-77
2022/07/17 11:08:09;;;;;;;1.25;0.70;;;;;31.10;102693.00;;;;5034892;28;20207;-77
2022/07/17 11:10:38;;;;;;;0.68;0.50;;;;;31.00;102698.00;;;;5034941;28;20219;-78
2022/07/17 11:13:10;;;;;;;1.25;0.73;;;;;31.00;102697.00;;;;5031034;28;20204;-77
2022/07/17 11:15:43;;;;;;;1.92;1.02;;;;;31.00;102692.00;;;;5046803;28;20262;-77
2022/07/17 11:18:13;;;;;;;1.40;0.90;;;;;31.10;102694.00;;;;5030440;28;20203;-78
2022/07/17 11:20:54;;;;;;;3.03;0.90;;;;;31.00;102692.00;;;;5030999;28;20196;-78
2022/07/17 11:23:24;;;;;;;1.10;0.90;;;;;31.10;102693.00;;;;5030780;28;20211;-77
2022/07/17 11:26:01;;;;;;;1.48;0.80;;;;;31.00;102688.00;;;;5031275;28;20598;-77
2022/07/17 11:28:33;;;;;;;4.00;0.75;;;;;31.00;102687.00;;;;5030077;28;20196;-77
2022/07/17 11:31:05;;;;;;;1.30;0.90;;;;;31.00;102689.00;;;;5030465;28;20211;-79
2022/07/17 11:33:33;;;;;;;1.67;1.23;;;;;31.00;102686.00;;;;5031108;28;20258;-77
2022/07/17 11:36:06;;;;;;;3.53;1.00;;;;;31.00;102683.00;;;;5032919;28;21008;-78
2022/07/17 11:38:35;;;;;;;2.40;1.05;;;;;31.00;102676.00;;;;5030080;28;20189;-78
2022/07/17 11:41:03;;;;;;;3.50;1.50;;;;;31.00;102688.00;;;;5030366;28;21082;-77
2022/07/17 11:43:40;;;;;;;1.40;1.02;;;;;30.90;102683.00;;;;5034606;28;20214;-78
2022/07/17 11:46:08;;;;;;;2.80;1.05;;;;;31.00;102685.00;;;;5047218;28;20207;-78
2022/07/17 11:48:35;;;;;;;1.38;0.70;;;;;31.00;102692.00;;;;5030954;28;20200;-77
2022/07/17 11:51:03;;;;;;;1.35;0.93;;;;;31.00;102684.00;;;;5034214;28;20200;-78
2022/07/17 11:53:35;;;;;;;1.05;0.70;;;;;31.00;102683.00;;;;5029847;28;20212;-77
2022/07/17 11:56:04;;;;;;;2.35;0.88;;;;;31.10;102678.00;;;;5030161;28;20238;-77
2022/07/17 11:58:43;;;;;;;1.80;1.08;;;;;31.00;102676.00;;;;5030455;28;20228;-78
2022/07/17 12:01:11;;;;;;;1.27;0.80;;;;;31.10;102668.00;;;;5029306;28;20196;-77
2022/07/17 12:03:38;;;;;;;2.38;0.90;;;;;31.20;102668.00;;;;5029589;28;20211;-77
2022/07/17 12:06:06;;;;;;;3.83;1.20;;;;;31.20;102662.00;;;;5029708;28;20658;-78
2022/07/17 12:08:34;;;;;;;2.13;0.95;;;;;31.20;102664.00;;;;5041676;28;20716;-78
2022/07/17 12:11:06;;;;;;;2.33;1.10;;;;;31.20;102665.00;;;;5029364;28;20212;-77
2022/07/17 12:13:42;;;;;;;2.55;1.10;;;;;31.10;102666.00;;;;5029452;28;20203;-78
2022/07/17 12:16:27;;;;;;;2.20;1.15;;;;;31.10;102665.00;;;;5044944;28;20192;-78